Time;durP1;ratioP1;P1;durP2;ratioP2;P2;SDS_P1;SDS_P2;PMS_P1;PMS_P2;Temp;Humidity;BMP_temperature;BMP_pressure;BME280_temperature;BME280_humidity;BME280_pressure;Samples;Min_cycle;Max_cycle;Signal;HPM_P1;HPM_P2
2021/01/13 00:00:50;;;;;;;19.00;5.70;;;3.20;73.10;;;;;;5013964;28;20390;-72
2021/01/13 00:03:16;;;;;;;23.02;6.28;;;3.00;74.40;;;;;;5013983;28;20385;-73
2021/01/13 00:05:41;;;;;;;19.50;5.97;;;3.00;74.60;;;;;;5013657;28;20389;-72
2021/01/13 00:08:07;;;;;;;16.80;7.20;;;2.90;75.90;;;;;;5013110;28;20403;-73
2021/01/13 00:10:32;;;;;;;17.73;7.00;;;2.90;76.20;;;;;;5013215;28;20393;-71
2021/01/13 00:12:58;;;;;;;17.97;7.17;;;2.80;76.40;;;;;;5008217;28;20461;-72
2021/01/13 00:15:23;;;;;;;19.20;7.50;;;2.80;76.90;;;;;;5013189;28;20455;-72
2021/01/13 00:17:50;;;;;;;20.80;7.90;;;2.70;77.40;;;;;;5014201;28;20385;-72
2021/01/13 00:20:15;;;;;;;16.63;7.13;;;2.70;78.80;;;;;;5012595;28;20472;-72
2021/01/13 00:22:44;;;;;;;15.40;7.15;;;2.60;78.70;;;;;;5014017;28;20949;-71
2021/01/13 00:25:10;;;;;;;16.30;7.50;;;2.60;79.00;;;;;;5015062;28;20428;-71
2021/01/13 00:27:36;;;;;;;26.60;7.80;;;2.60;79.60;;;;;;5016324;28;20906;-72
2021/01/13 00:30:02;;;;;;;27.53;7.90;;;2.60;78.90;;;;;;5015598;28;20440;-71
2021/01/13 00:32:31;;;;;;;18.67;8.13;;;2.50;79.70;;;;;;5015503;28;20412;-71
2021/01/13 00:34:57;;;;;;;24.83;8.98;;;2.40;80.40;;;;;;5015630;28;20419;-72
2021/01/13 00:37:22;;;;;;;17.20;8.13;;;2.40;80.60;;;;;;5014941;28;20475;-72
2021/01/13 00:39:48;;;;;;;22.00;7.83;;;2.40;81.60;;;;;;5013798;28;20393;-72
2021/01/13 00:42:13;;;;;;;22.50;8.20;;;2.50;80.60;;;;;;5014060;28;20385;-72
2021/01/13 00:44:39;;;;;;;19.03;8.90;;;2.50;79.70;;;;;;5012987;28;20801;-71
2021/01/13 00:47:04;;;;;;;25.35;9.60;;;2.50;80.20;;;;;;5014413;28;20396;-71
2021/01/13 00:49:30;;;;;;;20.65;8.85;;;2.30;81.10;;;;;;5012606;28;20393;-73
2021/01/13 00:51:56;;;;;;;25.83;9.53;;;2.40;82.50;;;;;;5012442;28;20412;-73
2021/01/13 00:54:21;;;;;;;22.87;10.40;;;2.30;81.50;;;;;;5012600;28;20396;-72
2021/01/13 00:56:48;;;;;;;26.83;9.27;;;2.30;82.20;;;;;;5012366;28;20380;-70
2021/01/13 00:59:14;;;;;;;28.95;10.27;;;2.30;81.20;;;;;;5015818;28;20396;-73
2021/01/13 01:01:42;;;;;;;18.40;9.30;;;2.30;82.30;;;;;;5022847;28;20385;-72
2021/01/13 01:04:09;;;;;;;24.63;9.10;;;2.30;82.90;;;;;;5023283;28;20389;-71
2021/01/13 01:06:35;;;;;;;21.63;9.30;;;2.30;82.90;;;;;;5020257;28;20412;-71
2021/01/13 01:09:01;;;;;;;18.80;9.63;;;2.30;82.80;;;;;;5018153;28;20393;-71
2021/01/13 01:11:29;;;;;;;24.02;10.20;;;2.30;82.20;;;;;;5018691;28;20397;-73
2021/01/13 01:13:55;;;;;;;26.80;11.00;;;2.30;81.50;;;;;;5009396;28;20411;-71
2021/01/13 01:16:20;;;;;;;26.10;9.68;;;2.10;81.20;;;;;;5013301;28;20700;-72
2021/01/13 01:18:46;;;;;;;19.20;9.37;;;2.10;83.60;;;;;;5014615;28;20394;-70
2021/01/13 01:21:11;;;;;;;24.43;9.80;;;2.10;82.50;;;;;;5014354;28;20407;-71
2021/01/13 01:23:38;;;;;;;20.77;9.88;;;2.10;83.50;;;;;;5014350;28;20404;-72
2021/01/13 01:26:04;;;;;;;23.55;8.88;;;2.20;82.10;;;;;;5013886;28;20397;-70
2021/01/13 01:28:30;;;;;;;25.38;9.63;;;2.30;80.40;;;;;;5014015;28;20458;-71
2021/01/13 01:30:56;;;;;;;20.80;9.52;;;2.20;80.80;;;;;;5012440;28;20401;-72
2021/01/13 01:33:21;;;;;;;23.30;9.30;;;2.10;81.00;;;;;;5011833;28;20766;-71
2021/01/13 01:35:47;;;;;;;18.60;9.53;;;2.20;80.80;;;;;;5011715;28;20403;-71
2021/01/13 01:38:12;;;;;;;26.35;9.93;;;2.20;80.40;;;;;;5012099;28;20892;-72
2021/01/13 01:40:38;;;;;;;22.88;9.25;;;2.10;80.40;;;;;;5011644;28;20484;-72
2021/01/13 01:43:03;;;;;;;17.17;8.60;;;2.00;81.20;;;;;;5010869;28;20897;-72
2021/01/13 01:45:31;;;;;;;20.70;8.70;;;2.00;82.20;;;;;;5013707;28;20400;-71
2021/01/13 01:48:02;;;;;;;21.73;8.70;;;2.10;82.50;;;;;;5017654;28;20389;-72
2021/01/13 01:50:31;;;;;;;22.90;8.85;;;2.20;80.90;;;;;;5015201;28;20763;-73
2021/01/13 01:53:17;;;;;;;21.92;9.02;;;2.30;79.10;;;;;;5014816;28;20417;-74
2021/01/13 01:55:51;;;;;;;21.67;9.20;;;2.20;79.30;;;;;;5011590;28;20830;-73
2021/01/13 01:58:25;;;;;;;18.85;8.23;;;2.10;79.10;;;;;;5011604;28;20381;-72
2021/01/13 02:01:02;;;;;;;24.35;8.77;;;2.10;80.50;;;;;;5011598;28;20405;-73
2021/01/13 02:03:48;;;;;;;21.05;7.70;;;2.10;79.10;;;;;;5011080;28;20767;-72
2021/01/13 02:06:16;;;;;;;20.92;8.95;;;2.00;79.90;;;;;;5011592;28;20881;-72
2021/01/13 02:08:43;;;;;;;20.85;8.25;;;2.00;81.00;;;;;;5010977;28;20389;-71
2021/01/13 02:11:17;;;;;;;19.73;8.80;;;2.10;80.10;;;;;;5011273;28;20389;-72
2021/01/13 02:13:47;;;;;;;21.97;9.23;;;2.10;78.40;;;;;;5010631;28;20978;-72
2021/01/13 02:16:14;;;;;;;17.83;8.63;;;1.90;80.00;;;;;;5010592;28;20397;-72
2021/01/13 02:18:42;;;;;;;16.90;8.50;;;2.10;79.40;;;;;;5015280;28;20600;-71
2021/01/13 02:21:15;;;;;;;16.40;8.35;;;2.10;78.60;;;;;;5018644;28;20893;-72
2021/01/13 02:24:24;;;;;;;22.13;8.70;;;2.20;79.00;;;;;;5019978;28;20419;-74
2021/01/13 02:27:47;;;;;;;29.45;9.73;;;2.20;78.60;;;;;;4999442;28;20430;-73
2021/01/13 02:30:18;;;;;;;21.98;10.02;;;2.10;79.30;;;;;;4961939;29;20394;-71
2021/01/13 02:32:48;;;;;;;21.23;9.45;;;2.10;78.80;;;;;;4960019;29;20429;-73
2021/01/13 02:35:19;;;;;;;19.93;9.50;;;2.10;80.10;;;;;;4991978;28;20736;-72
2021/01/13 02:38:12;;;;;;;21.00;9.85;;;2.10;78.70;;;;;;5021201;28;20389;-72
2021/01/13 02:40:46;;;;;;;25.00;10.20;;;2.20;79.10;;;;;;5012536;28;20815;-73
2021/01/13 02:43:13;;;;;;;24.17;10.13;;;2.10;79.10;;;;;;5010548;28;20853;-73
2021/01/13 02:45:49;;;;;;;27.70;11.10;;;2.10;79.10;;;;;;5011059;28;20498;-73
2021/01/13 02:48:22;;;;;;;25.10;11.57;;;2.10;79.30;;;;;;5011039;28;20384;-73
2021/01/13 02:50:54;;;;;;;28.67;11.13;;;2.10;79.60;;;;;;5009293;28;20415;-73
2021/01/13 02:53:19;;;;;;;27.40;10.68;;;2.00;79.80;;;;;;5010336;28;20412;-71
2021/01/13 02:55:48;;;;;;;24.23;11.20;;;2.00;80.40;;;;;;5010758;28;20388;-72
2021/01/13 02:58:25;;;;;;;25.93;11.27;;;1.90;80.30;;;;;;5010669;28;20494;-73
2021/01/13 03:00:52;;;;;;;30.92;12.05;;;1.90;81.90;;;;;;5010542;28;20621;-72
2021/01/13 03:03:18;;;;;;;28.88;11.80;;;1.90;83.10;;;;;;5010177;28;20409;-72
2021/01/13 03:05:45;;;;;;;25.35;12.57;;;1.90;84.00;;;;;;5010829;28;20785;-72
2021/01/13 03:08:12;;;;;;;27.33;12.77;;;1.90;83.10;;;;;;5010660;28;20389;-71
2021/01/13 03:10:40;;;;;;;27.25;12.40;;;1.90;81.90;;;;;;5010152;28;20471;-73
2021/01/13 03:13:07;;;;;;;32.47;14.13;;;1.90;82.60;;;;;;5008453;28;20887;-71
2021/01/13 03:15:35;;;;;;;23.52;13.82;;;1.90;82.30;;;;;;5010533;28;20400;-72
2021/01/13 03:18:07;;;;;;;26.75;13.65;;;1.90;83.70;;;;;;5010573;28;20874;-71
2021/01/13 03:20:49;;;;;;;26.93;14.30;;;1.90;83.10;;;;;;5010762;28;20393;-72
2021/01/13 03:23:48;;;;;;;26.55;13.50;;;2.00;82.50;;;;;;4995070;28;20406;-72
2021/01/13 03:26:19;;;;;;;30.40;15.52;;;2.00;82.60;;;;;;5008559;28;20442;-71
2021/01/13 03:28:46;;;;;;;26.23;14.13;;;2.10;81.10;;;;;;5014165;28;20395;-71
2021/01/13 03:31:21;;;;;;;26.00;13.68;;;2.10;81.80;;;;;;5013683;28;20805;-72
2021/01/13 03:34:23;;;;;;;37.38;14.15;;;2.20;81.20;;;;;;5013644;28;20919;-71
2021/01/13 03:37:18;;;;;;;35.03;15.23;;;2.10;82.80;;;;;;4994564;28;20402;-71
2021/01/13 03:39:44;;;;;;;28.33;15.25;;;2.30;82.70;;;;;;4993785;28;20390;-72
2021/01/13 03:42:18;;;;;;;29.52;14.45;;;2.40;81.30;;;;;;5008303;28;20455;-73
2021/01/13 03:44:45;;;;;;;30.03;14.20;;;2.50;81.00;;;;;;5014341;28;20388;-72
2021/01/13 03:47:50;;;;;;;23.53;14.20;;;2.60;79.40;;;;;;5014149;28;20735;-72
2021/01/13 03:50:23;;;;;;;26.02;14.27;;;2.70;79.20;;;;;;5013890;28;20470;-71
2021/01/13 03:52:56;;;;;;;38.05;14.80;;;2.80;77.40;;;;;;5013650;28;20462;-72
2021/01/13 03:55:23;;;;;;;31.63;14.60;;;2.90;76.50;;;;;;5013898;28;20869;-72
2021/01/13 03:57:57;;;;;;;35.78;15.32;;;2.90;77.40;;;;;;5014171;28;20473;-71
2021/01/13 04:00:40;;;;;;;30.70;14.50;;;2.90;76.90;;;;;;5013526;28;20762;-73
2021/01/13 04:03:24;;;;;;;34.10;14.88;;;2.80;77.30;;;;;;5012221;28;20413;-72
2021/01/13 04:06:12;;;;;;;29.95;14.90;;;2.70;79.40;;;;;;5012437;28;20381;-71
2021/01/13 04:08:47;;;;;;;24.60;14.82;;;2.80;79.60;;;;;;5013419;28;20393;-71
2021/01/13 04:11:13;;;;;;;26.42;13.63;;;2.90;78.40;;;;;;5012799;28;20407;-73
2021/01/13 04:13:45;;;;;;;27.80;13.90;;;3.10;76.20;;;;;;5011313;28;20416;-72
2021/01/13 04:16:12;;;;;;;22.00;13.38;;;3.10;77.00;;;;;;5013442;28;20377;-71
2021/01/13 04:18:40;;;;;;;28.63;13.57;;;3.20;76.10;;;;;;5013171;28;20393;-73
2021/01/13 04:21:08;;;;;;;28.40;14.20;;;3.20;75.80;;;;;;5012958;28;20486;-71
2021/01/13 04:23:35;;;;;;;28.25;13.68;;;3.40;72.90;;;;;;5013409;28;20894;-73
2021/01/13 04:26:01;;;;;;;30.10;13.87;;;3.30;74.00;;;;;;5013343;28;20453;-71
2021/01/13 04:28:27;;;;;;;30.00;13.45;;;3.30;73.10;;;;;;5013268;28;20412;-72
2021/01/13 04:30:54;;;;;;;29.75;13.85;;;3.40;73.40;;;;;;5013044;28;20411;-71
2021/01/13 04:33:20;;;;;;;27.90;13.43;;;3.40;73.30;;;;;;5012922;28;20766;-71
2021/01/13 04:35:46;;;;;;;28.27;12.27;;;3.40;73.90;;;;;;5012673;28;20389;-72
2021/01/13 04:38:16;;;;;;;20.63;12.00;;;3.50;73.20;;;;;;5013091;28;20424;-71
2021/01/13 04:40:49;;;;;;;38.05;13.27;;;3.60;72.40;;;;;;5012232;28;20396;-71
2021/01/13 04:43:14;;;;;;;28.83;12.67;;;3.70;71.50;;;;;;5012810;28;20506;-72
2021/01/13 04:45:44;;;;;;;21.33;12.20;;;3.70;70.40;;;;;;5012729;28;20878;-71
2021/01/13 04:48:12;;;;;;;20.88;11.25;;;3.70;71.60;;;;;;5011715;28;20487;-72
2021/01/13 04:50:40;;;;;;;21.93;10.40;;;3.70;73.20;;;;;;5012028;28;20428;-71
2021/01/13 04:53:25;;;;;;;21.77;11.30;;;3.70;74.20;;;;;;5012528;28;20438;-71
2021/01/13 04:55:55;;;;;;;19.40;10.93;;;3.60;74.80;;;;;;5012765;28;20392;-70
2021/01/13 04:58:21;;;;;;;20.15;10.80;;;3.60;74.50;;;;;;5012832;28;20940;-71
2021/01/13 05:01:23;;;;;;;22.00;11.10;;;3.50;77.10;;;;;;5012078;28;20396;-71
2021/01/13 05:04:22;;;;;;;20.80;10.20;;;3.40;77.70;;;;;;5002990;28;20878;-72
2021/01/13 05:06:57;;;;;;;18.60;11.18;;;3.40;78.40;;;;;;5012671;28;20389;-70
2021/01/13 05:09:29;;;;;;;24.20;10.75;;;3.50;78.80;;;;;;5010881;28;20404;-70
2021/01/13 05:11:55;;;;;;;22.40;10.68;;;3.50;78.10;;;;;;5011677;28;20436;-70
2021/01/13 05:14:21;;;;;;;24.58;12.02;;;3.60;77.70;;;;;;5010704;28;20427;-72
2021/01/13 05:16:49;;;;;;;26.90;12.20;;;3.60;77.40;;;;;;5012332;28;20786;-72
2021/01/13 05:19:30;;;;;;;24.00;12.50;;;3.60;77.50;;;;;;5012200;28;20442;-72
2021/01/13 05:21:57;;;;;;;29.73;12.63;;;3.70;76.60;;;;;;5016050;28;20436;-72
2021/01/13 05:24:25;;;;;;;26.15;13.77;;;3.70;76.70;;;;;;5022048;28;20401;-71
2021/01/13 05:27:01;;;;;;;31.67;14.05;;;3.70;76.50;;;;;;5019475;28;20393;-73
2021/01/13 05:29:27;;;;;;;30.05;13.63;;;3.70;76.70;;;;;;5027874;28;20428;-72
2021/01/13 05:31:54;;;;;;;26.50;13.00;;;3.70;76.60;;;;;;5026938;28;20490;-72
2021/01/13 05:34:20;;;;;;;21.98;12.85;;;3.70;76.70;;;;;;5028141;28;20463;-72
2021/01/13 05:37:18;;;;;;;25.65;14.27;;;3.70;76.90;;;;;;5027659;28;20436;-73
2021/01/13 05:39:49;;;;;;;31.17;13.20;;;3.70;77.20;;;;;;5025099;28;20858;-73
2021/01/13 05:42:17;;;;;;;28.55;13.65;;;3.80;75.40;;;;;;5020433;28;20743;-73
2021/01/13 05:44:43;;;;;;;27.20;13.02;;;3.80;74.60;;;;;;5020929;28;20392;-73
2021/01/13 05:47:28;;;;;;;24.42;13.55;;;3.80;75.90;;;;;;5019843;28;20385;-73
2021/01/13 05:49:57;;;;;;;32.80;15.63;;;3.80;77.10;;;;;;5020555;28;20409;-71
2021/01/13 05:52:32;;;;;;;30.52;14.85;;;3.90;76.70;;;;;;5023506;28;20424;-73
2021/01/13 05:54:58;;;;;;;27.05;14.98;;;3.90;76.80;;;;;;5025120;28;20381;-72
2021/01/13 05:57:24;;;;;;;31.73;15.95;;;3.80;76.20;;;;;;5020149;28;20392;-72
2021/01/13 05:59:52;;;;;;;30.90;15.47;;;3.80;77.40;;;;;;5015744;28;20747;-74
2021/01/13 06:02:20;;;;;;;32.70;14.40;;;3.80;76.20;;;;;;5016185;28;20403;-72
2021/01/13 06:04:47;;;;;;;26.25;14.70;;;3.90;74.80;;;;;;5020495;28;20395;-72
2021/01/13 06:07:23;;;;;;;31.50;15.82;;;3.80;75.40;;;;;;5024177;28;20393;-73
2021/01/13 06:09:55;;;;;;;29.00;14.50;;;3.80;75.90;;;;;;5014792;28;20476;-73
2021/01/13 06:12:22;;;;;;;30.52;15.38;;;3.90;74.70;;;;;;5012333;28;20409;-73
2021/01/13 06:14:53;;;;;;;26.50;13.90;;;3.90;74.20;;;;;;5009183;28;20869;-73
2021/01/13 06:17:23;;;;;;;24.75;14.40;;;3.90;74.10;;;;;;5013882;28;20392;-72
2021/01/13 06:19:50;;;;;;;25.40;14.02;;;3.90;73.60;;;;;;5013654;28;20392;-71
2021/01/13 06:22:16;;;;;;;28.45;14.25;;;3.90;73.80;;;;;;5012820;28;20404;-74
2021/01/13 06:24:42;;;;;;;30.63;14.90;;;3.90;74.80;;;;;;5014019;28;20467;-71
2021/01/13 06:27:19;;;;;;;31.35;14.65;;;3.80;75.30;;;;;;5013003;28;20440;-74
2021/01/13 06:29:50;;;;;;;27.08;13.40;;;3.80;75.90;;;;;;5015337;28;20393;-70
2021/01/13 06:32:26;;;;;;;27.67;13.43;;;3.90;74.10;;;;;;5011082;28;20413;-70
2021/01/13 06:34:57;;;;;;;26.88;13.10;;;3.80;75.10;;;;;;5008074;28;20407;-69
2021/01/13 06:37:35;;;;;;;25.70;12.48;;;3.80;75.10;;;;;;5008422;28;20447;-73
2021/01/13 06:40:12;;;;;;;30.85;12.73;;;3.80;75.70;;;;;;5009946;28;20397;-73
2021/01/13 06:42:37;;;;;;;26.55;13.65;;;3.70;75.40;;;;;;5010793;28;20407;-73
2021/01/13 06:45:04;;;;;;;27.83;13.50;;;3.70;76.10;;;;;;5010665;28;20759;-71
2021/01/13 06:47:29;;;;;;;23.23;13.05;;;3.70;75.90;;;;;;5009574;28;20400;-73
2021/01/13 06:49:55;;;;;;;25.67;12.80;;;3.60;76.20;;;;;;5010353;28;20405;-72
2021/01/13 06:52:32;;;;;;;26.27;12.93;;;3.60;76.40;;;;;;5010470;28;20443;-71
2021/01/13 06:54:59;;;;;;;27.98;13.00;;;3.60;76.20;;;;;;5010797;28;20420;-73
2021/01/13 06:57:30;;;;;;;22.10;12.55;;;3.50;75.90;;;;;;5009737;28;20746;-70
2021/01/13 06:59:58;;;;;;;29.00;12.90;;;3.50;76.60;;;;;;5009054;28;20389;-72
2021/01/13 07:02:31;;;;;;;26.10;13.45;;;3.40;77.70;;;;;;5010379;28;20782;-71
2021/01/13 07:04:57;;;;;;;35.40;13.85;;;3.30;78.60;;;;;;5010366;28;20384;-73
2021/01/13 07:07:22;;;;;;;30.27;14.00;;;3.30;80.10;;;;;;5009478;28;20408;-73
2021/01/13 07:09:49;;;;;;;29.90;13.10;;;3.30;81.00;;;;;;5010167;28;20388;-72
2021/01/13 07:12:20;;;;;;;21.52;13.40;;;3.20;80.70;;;;;;5010064;28;20409;-74
2021/01/13 07:14:49;;;;;;;33.13;13.50;;;3.10;80.90;;;;;;5002016;28;20389;-73
2021/01/13 07:17:19;;;;;;;29.40;13.50;;;3.20;81.10;;;;;;5008449;28;20389;-72
2021/01/13 07:19:50;;;;;;;28.73;14.38;;;3.20;80.90;;;;;;5009812;28;20397;-72
2021/01/13 07:22:18;;;;;;;29.53;13.73;;;3.10;80.50;;;;;;5009994;28;20397;-71
2021/01/13 07:24:45;;;;;;;32.08;15.48;;;3.20;79.70;;;;;;5009710;28;20909;-73
2021/01/13 07:27:12;;;;;;;30.75;15.68;;;3.10;80.00;;;;;;5009266;28;20466;-73
2021/01/13 07:29:39;;;;;;;31.23;15.13;;;3.10;80.00;;;;;;5016216;28;20411;-73
2021/01/13 07:32:06;;;;;;;32.72;15.40;;;3.10;80.40;;;;;;5017299;28;20494;-73
2021/01/13 07:34:42;;;;;;;35.00;15.68;;;3.00;81.60;;;;;;5016924;28;20424;-72
2021/01/13 07:37:16;;;;;;;29.80;15.32;;;3.00;81.60;;;;;;5017270;28;20747;-73
2021/01/13 07:40:19;;;;;;;37.90;15.57;;;2.90;82.20;;;;;;5011129;28;20491;-73
2021/01/13 07:42:46;;;;;;;31.90;17.30;;;2.90;82.00;;;;;;5009561;28;20380;-72
2021/01/13 07:45:13;;;;;;;35.20;18.60;;;2.80;82.00;;;;;;5009589;28;20407;-72
2021/01/13 07:48:11;;;;;;;37.05;18.35;;;2.90;81.80;;;;;;5008438;28;20401;-72
2021/01/13 07:50:44;;;;;;;41.15;18.55;;;2.80;82.00;;;;;;5006944;28;20898;-71
2021/01/13 07:53:24;;;;;;;29.15;18.00;;;2.80;81.80;;;;;;5009121;28;20909;-71
2021/01/13 07:56:02;;;;;;;35.67;18.98;;;2.80;82.50;;;;;;5009067;28;20399;-72
2021/01/13 07:58:30;;;;;;;29.70;18.15;;;2.70;82.80;;;;;;5013204;28;20838;-74
2021/01/13 08:01:11;;;;;;;34.83;18.50;;;2.80;82.50;;;;;;5022137;28;20384;-72
2021/01/13 08:04:14;;;;;;;40.80;19.35;;;2.70;84.00;;;;;;5017857;28;20393;-70
2021/01/13 08:06:52;;;;;;;35.60;19.17;;;2.80;83.20;;;;;;5010262;28;20958;-71
2021/01/13 08:09:19;;;;;;;35.95;19.67;;;2.80;82.30;;;;;;5012772;28;20527;-72
2021/01/13 08:12:05;;;;;;;36.33;19.60;;;2.80;81.90;;;;;;5012324;28;20396;-72
2021/01/13 08:15:09;;;;;;;46.90;18.77;;;2.90;81.60;;;;;;5000865;28;20851;-74
2021/01/13 08:18:02;;;;;;;38.75;19.80;;;3.00;80.90;;;;;;5017311;28;20401;-74
2021/01/13 08:21:00;;;;;;;37.33;19.40;;;3.00;80.30;;;;;;5012012;28;20404;-73
2021/01/13 08:23:40;;;;;;;39.17;20.40;;;3.00;80.60;;;;;;5023448;28;20464;-72
2021/01/13 08:26:07;;;;;;;41.17;20.77;;;3.00;80.80;;;;;;5016314;28;20743;-72
2021/01/13 08:28:38;;;;;;;36.85;19.60;;;3.00;79.70;;;;;;5015270;28;20396;-71
2021/01/13 08:31:05;;;;;;;33.88;19.83;;;3.00;79.20;;;;;;5014966;28;20400;-71
2021/01/13 08:33:35;;;;;;;40.87;20.73;;;3.00;78.80;;;;;;5015063;28;20416;-72
2021/01/13 08:36:08;;;;;;;40.08;19.60;;;3.00;79.70;;;;;;5016241;28;20381;-71
2021/01/13 08:38:34;;;;;;;41.33;18.75;;;3.00;80.10;;;;;;5015359;28;20476;-75
2021/01/13 08:41:22;;;;;;;40.75;21.00;;;3.00;79.60;;;;;;5015647;28;20473;-72
2021/01/13 08:44:05;;;;;;;39.63;20.95;;;3.10;79.20;;;;;;5016440;28;20392;-72
2021/01/13 08:46:38;;;;;;;40.78;20.02;;;3.00;79.80;;;;;;5015675;28;20400;-71
2021/01/13 08:49:05;;;;;;;40.70;20.60;;;3.00;81.40;;;;;;5019429;28;20778;-72
2021/01/13 08:51:31;;;;;;;41.40;21.48;;;2.90;81.90;;;;;;5023999;28;20420;-73
2021/01/13 08:54:17;;;;;;;39.73;20.13;;;3.00;81.20;;;;;;5022683;28;20752;-73
2021/01/13 08:56:56;;;;;;;36.05;19.10;;;3.10;80.90;;;;;;5004455;28;20385;-73
2021/01/13 08:59:44;;;;;;;42.37;20.07;;;3.10;79.50;;;;;;5021533;28;20897;-76
2021/01/13 09:02:21;;;;;;;39.28;19.92;;;3.20;79.20;;;;;;5012543;28;20412;-72
2021/01/13 09:04:48;;;;;;;41.08;20.35;;;3.30;79.20;;;;;;5011559;28;20404;-71
2021/01/13 09:07:19;;;;;;;40.97;21.73;;;3.30;78.50;;;;;;5012044;28;20454;-71
2021/01/13 09:10:05;;;;;;;50.33;19.90;;;3.30;79.70;;;;;;5011605;28;20400;-73
2021/01/13 09:12:42;;;;;;;38.63;21.80;;;3.30;78.20;;;;;;5011817;28;20404;-73
2021/01/13 09:15:07;;;;;;;34.13;20.52;;;3.30;78.60;;;;;;5002746;28;20447;-73
2021/01/13 09:17:41;;;;;;;34.53;21.07;;;3.40;78.50;;;;;;5011294;28;20860;-74
2021/01/13 09:20:12;;;;;;;40.50;20.65;;;3.50;77.60;;;;;;5011062;28;20404;-73
2021/01/13 09:22:45;;;;;;;40.35;21.13;;;3.60;76.40;;;;;;5011824;28;20522;-72
2021/01/13 09:25:20;;;;;;;37.85;20.30;;;3.60;76.00;;;;;;5011300;28;20400;-73
2021/01/13 09:28:10;;;;;;;37.42;19.80;;;3.70;74.80;;;;;;5012147;28;20445;-75
2021/01/13 09:30:41;;;;;;;33.05;18.60;;;3.70;73.90;;;;;;5000153;28;20717;-73
2021/01/13 09:33:12;;;;;;;35.23;18.50;;;3.90;74.00;;;;;;5011499;28;20404;-73
2021/01/13 09:35:43;;;;;;;28.20;17.00;;;4.00;73.40;;;;;;5010772;28;20407;-73
2021/01/13 09:38:13;;;;;;;34.37;16.57;;;4.00;72.40;;;;;;5011375;28;20397;-73
2021/01/13 09:41:01;;;;;;;30.70;17.67;;;4.10;70.80;;;;;;5009599;28;20404;-73
2021/01/13 09:43:44;;;;;;;30.38;17.33;;;4.10;70.50;;;;;;5011673;28;20388;-73
2021/01/13 09:46:22;;;;;;;30.58;16.85;;;4.10;71.20;;;;;;5010635;28;20753;-74
2021/01/13 09:49:09;;;;;;;30.63;17.58;;;4.30;70.40;;;;;;5011075;28;20393;-73
2021/01/13 09:51:36;;;;;;;30.42;15.68;;;4.40;68.40;;;;;;5010950;28;20415;-74
2021/01/13 09:54:04;;;;;;;29.58;16.23;;;4.40;68.20;;;;;;5014751;28;20821;-73
2021/01/13 09:56:31;;;;;;;27.38;15.10;;;4.40;68.80;;;;;;5011536;28;20427;-73
2021/01/13 09:58:59;;;;;;;25.95;15.20;;;4.50;69.10;;;;;;5014939;28;20388;-71
2021/01/13 10:01:28;;;;;;;31.17;15.57;;;4.50;68.70;;;;;;5014770;28;20451;-73
2021/01/13 10:03:55;;;;;;;25.98;15.55;;;4.50;69.10;;;;;;5017080;28;20388;-74
2021/01/13 10:06:27;;;;;;;33.57;16.23;;;4.60;66.20;;;;;;5013794;28;20516;-73
2021/01/13 10:08:54;;;;;;;32.13;15.73;;;4.70;65.90;;;;;;5014562;28;20388;-74
2021/01/13 10:11:22;;;;;;;26.58;15.30;;;4.60;65.60;;;;;;5014336;28;20398;-76
2021/01/13 10:14:09;;;;;;;23.90;15.00;;;4.60;66.70;;;;;;5007448;28;20904;-75
2021/01/13 10:16:43;;;;;;;35.47;16.00;;;4.70;66.90;;;;;;5013529;28;20461;-74
2021/01/13 10:19:09;;;;;;;26.05;15.05;;;4.70;66.30;;;;;;5014702;28;20396;-74
2021/01/13 10:21:40;;;;;;;27.20;15.23;;;4.70;65.40;;;;;;5014173;28;20404;-74
2021/01/13 10:24:08;;;;;;;32.27;15.40;;;4.60;67.40;;;;;;5018545;28;20746;-73
2021/01/13 10:26:44;;;;;;;30.50;15.10;;;4.80;68.10;;;;;;5016128;28;20914;-71
2021/01/13 10:29:13;;;;;;;31.27;15.55;;;5.00;65.10;;;;;;5019890;28;20423;-73
2021/01/13 10:31:39;;;;;;;32.95;15.40;;;5.20;62.90;;;;;;5020013;28;20414;-73
2021/01/13 10:34:06;;;;;;;32.92;14.77;;;5.20;61.70;;;;;;5017494;28;20543;-74
2021/01/13 10:36:31;;;;;;;30.80;14.73;;;5.20;59.60;;;;;;5015422;28;20461;-73
2021/01/13 10:39:15;;;;;;;31.10;16.07;;;5.20;60.60;;;;;;5015063;28;20436;-73
2021/01/13 10:41:44;;;;;;;30.10;15.53;;;5.10;61.40;;;;;;5015754;28;20440;-75
2021/01/13 10:44:16;;;;;;;32.35;15.98;;;5.10;61.60;;;;;;5012200;28;20432;-74
2021/01/13 10:46:42;;;;;;;28.17;15.30;;;5.20;62.30;;;;;;5013061;28;20419;-71
2021/01/13 10:49:17;;;;;;;26.00;14.40;;;5.30;59.80;;;;;;5012356;28;20939;-71
2021/01/13 10:51:47;;;;;;;27.63;14.63;;;5.40;60.80;;;;;;5016861;28;20393;-72
2021/01/13 10:54:17;;;;;;;29.55;14.95;;;5.60;58.00;;;;;;5019675;28;20416;-73
2021/01/13 10:56:44;;;;;;;26.10;15.63;;;5.60;58.20;;;;;;5013268;28;20821;-73
2021/01/13 10:59:15;;;;;;;27.55;14.80;;;5.50;58.70;;;;;;5009532;28;20420;-73
2021/01/13 11:01:45;;;;;;;27.80;15.10;;;5.60;59.30;;;;;;5010408;28;20740;-72
2021/01/13 11:04:29;;;;;;;30.77;15.15;;;5.70;58.10;;;;;;5007835;28;20397;-72
2021/01/13 11:06:56;;;;;;;31.10;15.80;;;5.70;58.00;;;;;;4991132;28;20387;-72
2021/01/13 11:09:23;;;;;;;36.72;15.88;;;5.70;58.90;;;;;;4998573;28;20380;-73
2021/01/13 11:11:49;;;;;;;29.33;14.68;;;5.70;59.10;;;;;;5010431;28;20381;-72
2021/01/13 11:14:14;;;;;;;26.27;15.40;;;5.70;58.10;;;;;;5008990;28;20400;-73
2021/01/13 11:17:06;;;;;;;36.25;17.70;;;5.60;58.50;;;;;;5010000;28;20479;-74
2021/01/13 11:19:32;;;;;;;27.95;16.10;;;5.70;58.10;;;;;;5005971;28;20458;-73
2021/01/13 11:21:59;;;;;;;28.80;16.40;;;5.70;58.80;;;;;;5009878;28;20392;-75
2021/01/13 11:24:42;;;;;;;30.40;16.27;;;5.70;58.60;;;;;;5010807;28;20837;-72
2021/01/13 11:27:17;;;;;;;31.33;16.52;;;5.80;58.30;;;;;;4991893;28;20390;-72
2021/01/13 11:29:52;;;;;;;28.90;17.48;;;5.90;58.00;;;;;;5006682;28;20475;-71
2021/01/13 11:32:20;;;;;;;32.88;16.90;;;5.90;58.40;;;;;;5009284;28;20504;-73
2021/01/13 11:34:51;;;;;;;28.50;16.77;;;5.80;58.80;;;;;;5006578;28;20439;-72
2021/01/13 11:37:25;;;;;;;31.95;16.35;;;5.90;58.20;;;;;;5009564;28;20789;-72
2021/01/13 11:40:23;;;;;;;28.90;14.85;;;6.00;56.80;;;;;;5009247;28;20382;-73
2021/01/13 11:43:07;;;;;;;34.42;16.25;;;5.90;56.50;;;;;;5011979;28;20400;-70
2021/01/13 11:45:57;;;;;;;32.85;16.58;;;5.70;58.50;;;;;;5006112;28;20475;-72
2021/01/13 11:48:30;;;;;;;31.98;15.63;;;5.70;59.60;;;;;;5004929;28;20906;-73
2021/01/13 11:51:06;;;;;;;30.80;15.98;;;5.60;61.00;;;;;;5012613;28;20422;-72
2021/01/13 11:53:32;;;;;;;26.52;14.95;;;5.70;59.80;;;;;;5008844;28;20900;-72
2021/01/13 11:56:04;;;;;;;30.10;15.18;;;5.70;59.00;;;;;;4994116;28;20536;-74
2021/01/13 11:58:31;;;;;;;28.88;15.80;;;5.80;59.50;;;;;;4996793;28;20389;-75
2021/01/13 12:00:57;;;;;;;29.30;15.05;;;5.90;58.10;;;;;;5011774;28;20401;-73
2021/01/13 12:03:23;;;;;;;30.60;14.88;;;5.90;57.40;;;;;;5012866;28;20439;-73
2021/01/13 12:05:49;;;;;;;25.13;13.85;;;5.90;57.50;;;;;;5013774;28;20388;-72
2021/01/13 12:08:16;;;;;;;28.73;15.20;;;5.90;58.40;;;;;;5013298;28;20393;-72
2021/01/13 12:10:43;;;;;;;31.05;13.48;;;6.00;57.80;;;;;;5024864;28;20404;-73
2021/01/13 12:13:19;;;;;;;25.98;13.50;;;6.00;56.90;;;;;;5013529;28;20499;-73
2021/01/13 12:16:02;;;;;;;34.00;14.02;;;6.00;57.30;;;;;;5018198;28;20401;-73
2021/01/13 12:18:31;;;;;;;28.67;13.70;;;6.00;59.00;;;;;;5018397;28;20475;-73
2021/01/13 12:21:29;;;;;;;25.20;13.77;;;6.00;58.20;;;;;;5012639;28;20400;-73
2021/01/13 12:23:56;;;;;;;27.70;13.57;;;6.00;57.60;;;;;;5012784;28;20479;-74
2021/01/13 12:26:30;;;;;;;21.67;12.93;;;6.10;57.00;;;;;;5013190;28;20389;-73
2021/01/13 12:28:57;;;;;;;25.13;12.38;;;6.20;55.60;;;;;;5012007;28;20408;-72
2021/01/13 12:31:32;;;;;;;26.10;13.20;;;6.20;54.80;;;;;;5012921;28;20479;-72
2021/01/13 12:33:58;;;;;;;22.83;13.02;;;6.10;55.00;;;;;;5013315;28;20467;-72
2021/01/13 12:36:26;;;;;;;30.45;13.90;;;6.10;56.60;;;;;;5012926;28;20886;-71
2021/01/13 12:38:53;;;;;;;31.33;14.00;;;6.00;57.70;;;;;;5012535;28;20397;-73
2021/01/13 12:41:26;;;;;;;25.23;13.77;;;6.10;57.50;;;;;;5011855;28;20500;-72
2021/01/13 12:43:52;;;;;;;22.48;11.13;;;6.20;56.30;;;;;;5013659;28;20401;-73
2021/01/13 12:46:33;;;;;;;23.42;10.10;;;6.30;53.80;;;;;;5012262;28;20412;-72
2021/01/13 12:48:59;;;;;;;21.70;10.65;;;6.30;52.80;;;;;;5013376;28;20401;-73
2021/01/13 12:51:25;;;;;;;22.83;9.60;;;6.30;53.20;;;;;;5011011;28;20416;-73
2021/01/13 12:53:59;;;;;;;17.33;8.13;;;6.30;52.00;;;;;;5014320;28;20409;-73
2021/01/13 12:56:32;;;;;;;21.88;8.55;;;6.30;49.20;;;;;;5015749;28;20806;-72
2021/01/13 12:59:00;;;;;;;16.23;8.60;;;6.30;50.30;;;;;;5016295;28;20464;-74
2021/01/13 13:01:26;;;;;;;22.75;9.00;;;6.30;49.90;;;;;;5016505;28;20401;-75
2021/01/13 13:03:52;;;;;;;23.25;8.77;;;6.30;48.70;;;;;;5017704;28;20875;-72